createdAt,value
2023-06-17T00:00:56.334Z,96569.88
2023-06-17T00:03:23.122Z,96553.22
2023-06-17T00:05:50.157Z,96567.50
2023-06-17T00:08:16.873Z,96574.66
2023-06-17T00:10:43.485Z,96565.97
2023-06-17T00:13:10.435Z,96573.16
2023-06-17T00:15:38.113Z,96581.38
2023-06-17T00:18:06.626Z,96581.03
2023-06-17T00:20:34.003Z,96567.69
2023-06-17T00:23:00.889Z,96574.06
2023-06-17T00:25:27.534Z,96559.38
2023-06-17T00:27:54.744Z,96570.44
2023-06-17T00:30:21.700Z,96566.91
2023-06-17T00:32:48.584Z,96572.44
2023-06-17T00:35:16.061Z,96564.59
2023-06-17T00:37:42.877Z,96561.41
2023-06-17T00:40:10.717Z,96570.06
2023-06-17T00:42:38.126Z,96566.81
2023-06-17T00:45:05.471Z,96560.16
2023-06-17T00:47:32.356Z,96556.53
2023-06-17T00:49:59.606Z,96553.72
2023-06-17T00:52:41.283Z,96544.13
2023-06-17T00:55:11.813Z,96547.56
2023-06-17T00:57:39.755Z,96556.84
2023-06-17T01:00:11.811Z,96558.44
2023-06-17T01:02:42.013Z,96555.25
2023-06-17T01:05:14.270Z,96551.38
2023-06-17T01:07:54.224Z,96553.41
2023-06-17T01:10:43.888Z,96556.16
2023-06-17T01:13:13.517Z,96548.53
2023-06-17T01:15:41.093Z,96547.03
2023-06-17T01:18:08.985Z,96535.63
2023-06-17T01:20:37.532Z,96541.47
2023-06-17T01:23:06.535Z,96532.47
2023-06-17T01:25:34.217Z,96534.47
2023-06-17T01:28:11.975Z,96533.25
2023-06-17T01:30:38.684Z,96534.28
2023-06-17T01:33:05.467Z,96531.81
2023-06-17T01:35:33.704Z,96539.25
2023-06-17T01:38:12.307Z,96544.34
2023-06-17T01:40:44.057Z,96538.00
2023-06-17T01:43:16.981Z,96542.06
2023-06-17T01:45:44.409Z,96542.06
2023-06-17T01:48:11.385Z,96540.13
2023-06-17T01:50:38.158Z,96536.97
2023-06-17T01:53:05.048Z,96546.41
2023-06-17T01:55:31.746Z,96542.50
2023-06-17T01:57:58.653Z,96543.31
2023-06-17T02:00:28.040Z,96540.69
2023-06-17T02:02:54.875Z,96537.75
2023-06-17T02:05:22.256Z,96538.28
2023-06-17T02:07:49.103Z,96548.06
2023-06-17T02:10:16.501Z,96541.56
2023-06-17T02:12:43.288Z,96543.50
2023-06-17T02:15:10.938Z,96545.44
2023-06-17T02:17:38.428Z,96556.84
2023-06-17T02:20:07.314Z,96543.75
2023-06-17T02:22:34.551Z,96554.56
2023-06-17T02:25:01.619Z,96544.28
2023-06-17T02:27:28.501Z,96548.63
2023-06-17T02:29:55.756Z,96551.38
2023-06-17T02:32:22.402Z,96547.47
2023-06-17T02:34:49.341Z,96548.72
2023-06-17T02:37:16.872Z,96549.88
2023-06-17T02:39:43.631Z,96558.19
2023-06-17T02:42:10.473Z,96543.94
2023-06-17T02:44:37.462Z,96546.25
2023-06-17T02:47:04.606Z,96556.38
2023-06-17T02:49:31.894Z,96536.03
2023-06-17T02:51:58.705Z,96549.59
2023-06-17T02:54:25.405Z,96553.13
2023-06-17T02:56:52.077Z,96559.84
2023-06-17T02:59:19.520Z,96561.88
2023-06-17T03:01:46.308Z,96565.06
2023-06-17T03:04:13.299Z,96567.09
2023-06-17T03:06:42.521Z,96563.56
2023-06-17T03:09:09.754Z,96567.53
2023-06-17T03:11:37.498Z,96574.97
2023-06-17T03:14:04.758Z,96563.22
2023-06-17T03:16:35.042Z,96567.19
2023-06-17T03:19:02.483Z,96570.81
2023-06-17T03:21:37.030Z,96569.78
2023-06-17T03:24:03.994Z,96564.97
2023-06-17T03:26:30.624Z,96577.31
2023-06-17T03:28:57.684Z,96575.72
2023-06-17T03:31:24.576Z,96578.97
2023-06-17T03:33:53.407Z,96584.13
2023-06-17T03:36:20.924Z,96579.34
2023-06-17T03:38:47.868Z,96575.13
2023-06-17T03:41:14.507Z,96567.50
2023-06-17T03:43:41.373Z,96579.44
2023-06-17T03:46:08.240Z,96584.84
2023-06-17T03:48:34.871Z,96581.81
2023-06-17T03:51:02.534Z,96574.28
2023-06-17T03:53:30.526Z,96582.97
2023-06-17T03:55:57.384Z,96584.94
2023-06-17T03:58:24.201Z,96591.19
2023-06-17T04:00:51.787Z,96579.78
2023-06-17T04:03:26.638Z,96576.69
2023-06-17T04:05:53.907Z,96573.41
2023-06-17T04:08:23.343Z,96580.94
2023-06-17T04:10:51.090Z,96577.50
2023-06-17T04:13:18.092Z,96575.19
2023-06-17T04:15:47.083Z,96566.97
2023-06-17T04:18:14.464Z,96574.84
2023-06-17T04:20:41.554Z,96575.63
2023-06-17T04:23:08.382Z,96581.56
2023-06-17T04:25:38.531Z,96583.16
2023-06-17T04:28:08.372Z,96583.59
2023-06-17T04:30:35.409Z,96586.78
2023-06-17T04:33:02.361Z,96588.03
2023-06-17T04:35:29.346Z,96583.75
2023-06-17T04:37:56.836Z,96585.38
2023-06-17T04:40:24.717Z,96589.78
2023-06-17T04:42:51.849Z,96589.34
2023-06-17T04:45:19.038Z,96589.78
2023-06-17T04:47:46.308Z,96591.75
2023-06-17T04:50:14.076Z,96594.19
2023-06-17T04:52:45.156Z,96595.78
2023-06-17T04:55:15.510Z,96591.91
2023-06-17T04:57:43.534Z,96599.78
2023-06-17T05:00:15.061Z,96601.03
2023-06-17T05:02:42.309Z,96598.28
2023-06-17T05:05:09.498Z,96604.19
2023-06-17T05:07:36.450Z,96604.56
2023-06-17T05:10:04.034Z,96606.94
2023-06-17T05:12:30.790Z,96602.97
2023-06-17T05:14:57.479Z,96601.09
2023-06-17T05:17:24.521Z,96609.94
2023-06-17T05:19:51.406Z,96614.56
2023-06-17T05:22:18.051Z,96602.94
2023-06-17T05:24:44.952Z,96612.06
2023-06-17T05:27:11.722Z,96618.38
2023-06-17T05:29:40.198Z,96620.75
2023-06-17T05:32:07.681Z,96629.84
2023-06-17T05:34:34.577Z,96615.97
2023-06-17T05:37:01.490Z,96626.22
2023-06-17T05:39:28.355Z,96626.59
2023-06-17T05:41:55.313Z,96639.94
2023-06-17T05:44:22.190Z,96633.28
2023-06-17T05:46:49.112Z,96635.34
2023-06-17T05:49:17.019Z,96626.41
2023-06-17T05:51:43.891Z,96636.66
2023-06-17T05:54:11.187Z,96624.53
2023-06-17T05:56:38.002Z,96630.56
2023-06-17T05:59:04.605Z,96632.25
2023-06-17T06:01:31.434Z,96635.41
2023-06-17T06:03:58.200Z,96628.88
2023-06-17T06:06:24.948Z,96635.25
2023-06-17T06:08:51.935Z,96635.75
2023-06-17T06:11:18.708Z,96636.63
2023-06-17T06:13:45.386Z,96633.91
2023-06-17T06:16:14.884Z,96638.69
2023-06-17T06:18:41.953Z,96627.38
2023-06-17T06:21:08.695Z,96639.94
2023-06-17T06:23:36.226Z,96640.34
2023-06-17T06:34:56.157Z,96639.72
2023-06-17T06:37:22.778Z,96648.94
2023-06-17T06:39:50.197Z,96645.94
2023-06-17T06:42:16.893Z,96650.81
2023-06-17T06:44:43.559Z,96636.00
2023-06-17T06:47:10.209Z,96650.31
2023-06-17T06:49:37.618Z,96642.59
2023-06-17T06:52:05.123Z,96638.13
2023-06-17T06:54:31.847Z,96644.13
2023-06-17T06:56:59.110Z,96642.19
2023-06-17T06:59:25.765Z,96637.50
2023-06-17T07:01:52.447Z,96633.56
2023-06-17T07:04:22.144Z,96639.72
2023-06-17T07:06:48.911Z,96638.66
2023-06-17T07:09:15.528Z,96635.91
2023-06-17T07:11:42.452Z,96647.84
2023-06-17T07:14:09.110Z,96651.97
2023-06-17T07:16:35.956Z,96651.69
2023-06-17T07:19:02.754Z,96649.50
2023-06-17T07:21:29.410Z,96641.75
2023-06-17T07:23:56.067Z,96647.94
2023-06-17T07:26:23.197Z,96655.72
2023-06-17T07:28:49.830Z,96659.03
2023-06-17T07:31:16.676Z,96667.53
2023-06-17T07:33:43.772Z,96654.41
2023-06-17T07:36:14.697Z,96648.59
2023-06-17T07:38:42.570Z,96655.84
2023-06-17T07:41:13.040Z,96655.97
2023-06-17T07:43:39.784Z,96645.38
2023-06-17T07:46:08.159Z,96642.75
2023-06-17T07:48:35.419Z,96642.78
2023-06-17T07:51:02.552Z,96640.50
2023-06-17T07:53:29.196Z,96641.72
2023-06-17T07:55:56.577Z,96641.09
2023-06-17T07:58:23.431Z,96641.94
2023-06-17T08:00:50.083Z,96644.00
2023-06-17T08:03:17.419Z,96645.69
2023-06-17T08:05:44.184Z,96641.06
2023-06-17T08:08:10.760Z,96643.59
2023-06-17T08:10:37.921Z,96652.06
2023-06-17T08:13:04.699Z,96650.09
2023-06-17T08:15:31.378Z,96659.59
2023-06-17T08:17:57.998Z,96661.13
2023-06-17T08:20:25.369Z,96663.94
2023-06-17T08:22:52.301Z,96653.28
2023-06-17T08:25:19.097Z,96646.91
2023-06-17T08:27:48.961Z,96639.59
2023-06-17T08:30:16.049Z,96634.50
2023-06-17T08:32:42.952Z,96646.25
2023-06-17T08:35:09.975Z,96647.53
2023-06-17T08:37:36.986Z,96637.84
2023-06-17T08:40:07.753Z,96646.31
2023-06-17T08:42:34.697Z,96643.66
2023-06-17T08:45:01.770Z,96641.84
2023-06-17T08:47:28.980Z,96645.06
2023-06-17T08:49:59.381Z,96650.66
2023-06-17T08:52:27.403Z,96645.50
2023-06-17T08:54:55.573Z,96643.50
2023-06-17T08:57:22.460Z,96653.75
2023-06-17T08:59:49.593Z,96645.06
2023-06-17T09:02:17.193Z,96635.66
2023-06-17T09:04:43.992Z,96639.31
2023-06-17T09:07:11.015Z,96635.06
2023-06-17T09:09:38.223Z,96636.78
2023-06-17T09:12:06.803Z,96638.00
2023-06-17T09:14:34.533Z,96631.31
2023-06-17T09:17:02.176Z,96614.31
2023-06-17T09:19:32.618Z,96626.66
2023-06-17T09:22:09.847Z,96614.00
2023-06-17T09:24:44.153Z,96625.09
2023-06-17T09:27:21.767Z,96631.81
2023-06-17T09:29:49.518Z,96631.41
2023-06-17T09:32:16.749Z,96623.06
2023-06-17T09:34:49.268Z,96617.53
2023-06-17T09:37:16.602Z,96610.34
2023-06-17T09:39:46.826Z,96611.97
2023-06-17T09:42:14.032Z,96617.88
2023-06-17T09:44:41.987Z,96605.63
2023-06-17T09:47:09.778Z,96600.50
2023-06-17T09:49:38.285Z,96607.22
2023-06-17T09:52:10.308Z,96606.03
2023-06-17T09:54:38.448Z,96592.56
2023-06-17T09:57:10.581Z,96602.84
2023-06-17T09:59:37.552Z,96610.72
2023-06-17T10:02:04.520Z,96608.34
2023-06-17T10:04:31.627Z,96613.06
2023-06-17T10:07:06.272Z,96605.91
2023-06-17T10:09:33.287Z,96605.06
2023-06-17T10:57:54.773Z,96576.06
2023-06-17T11:00:21.747Z,96573.66
2023-06-17T11:02:49.103Z,96583.63
2023-06-17T11:05:17.984Z,96615.31
2023-06-17T11:07:45.095Z,96567.75
2023-06-17T11:10:12.155Z,96569.44
2023-06-17T11:12:40.563Z,96612.72
2023-06-17T11:15:08.375Z,96602.50
2023-06-17T11:17:35.093Z,96600.13
2023-06-17T11:20:02.915Z,96614.34
2023-06-17T11:22:29.861Z,96612.00
2023-06-17T11:24:59.493Z,96606.03
2023-06-17T11:27:26.432Z,96607.69
2023-06-17T11:29:53.291Z,96598.59
2023-06-17T11:32:21.385Z,96596.66
2023-06-17T11:34:51.261Z,96596.25
2023-06-17T11:37:18.374Z,96586.38
2023-06-17T11:39:45.110Z,96595.88
2023-06-17T11:42:12.417Z,96603.38
2023-06-17T11:44:39.568Z,96597.16
2023-06-17T11:47:10.097Z,96586.91
2023-06-17T11:49:43.073Z,96596.44
2023-06-17T11:52:11.012Z,96600.41
2023-06-17T11:54:51.429Z,96585.03
2023-06-17T11:57:23.113Z,96572.44
2023-06-17T11:59:51.352Z,96583.56
2023-06-17T12:02:19.018Z,96588.34
2023-06-17T12:04:48.991Z,96595.41
2023-06-17T12:07:16.044Z,96577.25
2023-06-17T12:09:54.617Z,96593.41
2023-06-17T12:12:36.667Z,96588.66
2023-06-17T12:15:21.221Z,96596.53
2023-06-17T12:17:53.080Z,96593.28
2023-06-17T12:20:21.918Z,96592.09
2023-06-17T12:22:50.530Z,96598.75
2023-06-17T12:25:19.932Z,96597.94
2023-06-17T12:27:47.274Z,96601.84
2023-06-17T12:30:16.507Z,96595.50
2023-06-17T12:32:44.500Z,96587.19
2023-06-17T12:35:12.990Z,96598.97
2023-06-17T12:37:42.363Z,96588.56
2023-06-17T12:40:11.632Z,96592.41
2023-06-17T12:42:42.624Z,96558.88
2023-06-17T12:45:09.672Z,96559.66
2023-06-17T12:47:38.069Z,96594.88
2023-06-17T12:50:06.376Z,96592.03
2023-06-17T12:52:33.479Z,96582.97
2023-06-17T12:55:02.637Z,96578.31
2023-06-17T12:57:30.435Z,96577.56
2023-06-17T12:59:57.198Z,96570.84
2023-06-17T13:02:23.898Z,96568.09
2023-06-17T13:04:50.664Z,96578.41
2023-06-17T13:07:18.046Z,96580.44
2023-06-17T13:09:44.980Z,96578.47
2023-06-17T13:12:12.514Z,96580.03
2023-06-17T13:14:39.276Z,96564.19
2023-06-17T13:17:06.611Z,96569.72
2023-06-17T13:19:33.376Z,96558.69
2023-06-17T13:22:00.066Z,96574.13
2023-06-17T13:24:26.808Z,96579.28
2023-06-17T13:26:53.495Z,96586.44
2023-06-17T13:29:22.499Z,96586.84
2023-06-17T13:31:49.343Z,96582.91
2023-06-17T13:34:16.257Z,96586.06
2023-06-17T13:36:46.326Z,96590.38
2023-06-17T13:39:14.646Z,96599.84
2023-06-17T13:41:41.488Z,96607.28
2023-06-17T13:44:09.431Z,96606.03
2023-06-17T13:46:36.406Z,96609.19
2023-06-17T13:49:04.447Z,96613.47
2023-06-17T13:51:32.466Z,96613.84
2023-06-17T13:54:00.412Z,96621.78
2023-06-17T13:56:29.009Z,96614.69
2023-06-17T13:58:56.668Z,96617.03
2023-06-17T14:01:24.621Z,96621.00
2023-06-17T14:03:51.554Z,96621.81
2023-06-17T14:06:19.508Z,96621.06
2023-06-17T14:08:46.161Z,96610.44
2023-06-17T14:11:12.930Z,96606.53
2023-06-17T14:13:41.020Z,96596.66
2023-06-17T14:16:08.359Z,96584.13
2023-06-17T14:18:35.075Z,96570.78
2023-06-17T14:21:02.111Z,96557.03
2023-06-17T14:23:28.747Z,96554.28
2023-06-17T14:25:55.695Z,96559.41
2023-06-17T14:28:22.231Z,96557.47
2023-06-17T14:30:50.173Z,96555.97
2023-06-17T14:33:16.945Z,96557.91
2023-06-17T14:35:43.779Z,96558.59
2023-06-17T14:38:10.595Z,96574.34
2023-06-17T14:40:37.452Z,96596.38
2023-06-17T14:43:07.253Z,96607.38
2023-06-17T14:45:34.023Z,96610.84
2023-06-17T14:48:00.867Z,96617.09
2023-06-17T14:50:27.860Z,96607.22
2023-06-17T14:52:54.581Z,96605.13
2023-06-17T14:55:21.390Z,96613.72
2023-06-17T14:57:48.200Z,96607.38
2023-06-17T15:00:15.158Z,96603.47
2023-06-17T15:02:56.033Z,96612.13
2023-06-17T15:05:23.752Z,96619.47
2023-06-17T15:07:50.562Z,96616.44
2023-06-17T15:10:17.476Z,96617.63
2023-06-17T15:12:45.334Z,96627.38
2023-06-17T15:15:13.960Z,96643.47
2023-06-17T15:17:42.172Z,96663.47
2023-06-17T15:20:10.836Z,96673.03
2023-06-17T15:22:37.765Z,96660.69
2023-06-17T15:25:04.738Z,96663.09
2023-06-17T15:27:31.325Z,96664.25
2023-06-17T15:29:58.016Z,96683.19
2023-06-17T15:32:24.782Z,96688.78
2023-06-17T15:34:51.365Z,96705.91
2023-06-17T15:37:17.988Z,96712.50
2023-06-17T15:39:45.361Z,96735.13
2023-06-17T15:42:12.980Z,96717.75
2023-06-17T15:44:39.782Z,96728.72
2023-06-17T15:47:07.043Z,96719.28
2023-06-17T15:49:33.883Z,96737.28
2023-06-17T15:52:00.891Z,96735.94
2023-06-17T15:54:27.749Z,96735.47
2023-06-17T15:56:54.394Z,96740.06
2023-06-17T15:59:21.532Z,96740.97
2023-06-17T16:01:48.741Z,96731.19
2023-06-17T16:04:45.800Z,96743.97
2023-06-17T16:07:14.229Z,96731.16
2023-06-17T16:09:45.757Z,96734.81
2023-06-17T16:12:15.396Z,96726.38
2023-06-17T16:14:43.265Z,96746.47
2023-06-17T16:17:11.062Z,96750.78
2023-06-17T16:19:38.831Z,96748.75
2023-06-17T16:22:11.231Z,96761.28
2023-06-17T16:24:39.416Z,96766.97
2023-06-17T16:27:06.489Z,96773.34
2023-06-17T16:29:33.228Z,96776.09
2023-06-17T16:31:59.974Z,96782.03
2023-06-17T16:34:26.688Z,96780.88
2023-06-17T16:36:53.438Z,96781.25
2023-06-17T16:39:20.275Z,96774.97
2023-06-17T16:41:47.607Z,96789.09
2023-06-17T16:44:14.396Z,96777.72
2023-06-17T16:46:41.315Z,96785.94
2023-06-17T16:49:08.033Z,96794.25
2023-06-17T16:51:34.771Z,96788.31
2023-06-17T16:54:03.750Z,96794.81
2023-06-17T16:56:32.149Z,96793.66
2023-06-17T16:58:58.839Z,96801.06
2023-06-17T17:01:25.763Z,96799.38
2023-06-17T17:03:52.461Z,96795.03
2023-06-17T17:06:19.598Z,96800.28
2023-06-17T17:08:49.818Z,96790.47
2023-06-17T17:11:16.526Z,96803.59
2023-06-17T17:13:48.507Z,96807.25
2023-06-17T17:16:15.764Z,96814.78
2023-06-17T17:18:44.479Z,96815.56
2023-06-17T17:21:11.167Z,96820.81
2023-06-17T17:23:44.702Z,96820.13
2023-06-17T17:26:14.273Z,96826.97
2023-06-17T17:28:41.525Z,96811.91
2023-06-17T17:31:08.633Z,96821.50
2023-06-17T17:33:35.585Z,96824.69
2023-06-17T17:36:02.432Z,96828.34
2023-06-17T17:38:29.160Z,96835.09
2023-06-17T17:40:55.788Z,96825.13
2023-06-17T17:43:22.668Z,96824.34
2023-06-17T17:45:49.355Z,96812.59
2023-06-17T17:48:16.932Z,96820.94
2023-06-17T17:50:43.629Z,96812.59
2023-06-17T17:53:10.675Z,96811.91
2023-06-17T17:55:37.736Z,96810.53
2023-06-17T17:58:04.433Z,96802.09
2023-06-17T18:00:31.400Z,96819.78
2023-06-17T18:02:58.511Z,96818.28
2023-06-17T18:05:25.319Z,96819.69
2023-06-17T18:07:53.770Z,96819.22
2023-06-17T18:10:20.971Z,96829.47
2023-06-17T18:12:48.105Z,96834.28
2023-06-17T18:15:14.808Z,96827.66
2023-06-17T18:17:41.538Z,96837.94
2023-06-17T18:20:12.288Z,96837.25
2023-06-17T18:22:39.341Z,96833.25
2023-06-17T18:25:06.875Z,96838.41
2023-06-17T18:27:36.312Z,96843.06
2023-06-17T18:30:05.094Z,96842.25
2023-06-17T18:32:32.099Z,96853.44
2023-06-17T18:34:58.950Z,96857.44
2023-06-17T18:37:26.094Z,96868.16
2023-06-17T18:39:53.152Z,96867.38
2023-06-17T18:42:19.853Z,96855.63
2023-06-17T18:44:46.545Z,96860.97
2023-06-17T18:47:13.514Z,96869.91
2023-06-17T18:49:40.431Z,96878.19
2023-06-17T18:52:08.404Z,96880.16
2023-06-17T18:54:35.380Z,96887.25
2023-06-17T18:57:02.042Z,96895.09
2023-06-17T18:59:28.656Z,96886.78
2023-06-17T19:01:55.373Z,96893.41
2023-06-17T19:04:22.044Z,96909.16
2023-06-17T19:06:50.070Z,96910.75
2023-06-17T19:09:16.907Z,96913.00
2023-06-17T19:11:43.631Z,96918.50
2023-06-17T19:14:10.458Z,96923.06
2023-06-17T19:16:37.186Z,96922.13
2023-06-17T19:19:03.920Z,96924.31
2023-06-17T19:21:32.153Z,96929.78
2023-06-17T19:23:59.207Z,96931.59
2023-06-17T19:26:26.186Z,96926.47
2023-06-17T19:28:52.839Z,96933.53
2023-06-17T19:31:19.545Z,96931.59
2023-06-17T19:33:46.309Z,96934.44
2023-06-17T19:36:13.330Z,96937.41
2023-06-17T19:38:44.518Z,96939.00
2023-06-17T19:41:11.106Z,96944.34
2023-06-17T19:43:38.257Z,96931.44
2023-06-17T19:46:05.252Z,96945.06
2023-06-17T19:48:32.501Z,96948.13
2023-06-17T19:51:01.971Z,96943.13
2023-06-17T19:53:28.788Z,96939.47
2023-06-17T19:55:56.242Z,96936.50
2023-06-17T19:58:23.113Z,96940.63
2023-06-17T20:00:49.848Z,96942.22
2023-06-17T20:03:16.828Z,96943.38
2023-06-17T20:05:46.264Z,96957.84
2023-06-17T20:08:14.445Z,96952.03
2023-06-17T20:10:41.516Z,96956.69
2023-06-17T20:13:08.944Z,96952.69
2023-06-17T20:15:36.977Z,96948.25
2023-06-17T20:18:04.445Z,96946.66
2023-06-17T20:20:32.271Z,96950.66
2023-06-17T20:22:59.119Z,96946.31
2023-06-17T20:25:25.781Z,96945.19
2023-06-17T20:27:52.452Z,96949.03
2023-06-17T20:30:19.590Z,96942.66
2023-06-17T20:32:46.650Z,96941.19
2023-06-17T20:35:13.405Z,96946.97
2023-06-17T20:37:40.645Z,96950.19
2023-06-17T20:40:08.039Z,96947.44
2023-06-17T20:42:34.859Z,96946.97
2023-06-17T20:45:01.696Z,96949.28
2023-06-17T20:47:28.587Z,96952.00
2023-06-17T20:49:55.446Z,96943.78
2023-06-17T20:52:22.429Z,96948.78
2023-06-17T20:54:49.078Z,96947.69
2023-06-17T20:57:16.041Z,96954.28
2023-06-17T20:59:43.267Z,96931.00
2023-06-17T21:02:10.059Z,96942.88
2023-06-17T21:04:36.641Z,96949.94
2023-06-17T21:07:03.654Z,96940.13
2023-06-17T21:09:30.954Z,96946.72
2023-06-17T21:11:57.862Z,96943.53
2023-06-17T21:14:24.516Z,96939.88
2023-06-17T21:16:52.411Z,96945.38
2023-06-17T21:19:19.175Z,96938.97
2023-06-17T21:21:45.887Z,96927.78
2023-06-17T21:24:12.617Z,96937.09
2023-06-17T21:26:39.765Z,96941.34
2023-06-17T21:29:06.497Z,96947.91
2023-06-17T21:31:33.202Z,96939.38
2023-06-17T21:33:59.877Z,96957.41
2023-06-17T21:36:26.657Z,96951.94
2023-06-17T21:38:53.337Z,96959.00
2023-06-17T21:41:20.294Z,96947.59
2023-06-17T21:43:47.047Z,96953.53
2023-06-17T21:46:13.909Z,96957.88
2023-06-17T21:48:44.662Z,96961.72
2023-06-17T21:51:11.622Z,96961.06
2023-06-17T21:53:38.257Z,96970.53
2023-06-17T21:56:05.051Z,96961.06
2023-06-17T21:58:32.593Z,96958.81
2023-06-17T22:00:59.292Z,96971.69
2023-06-17T22:03:26.368Z,96968.16
2023-06-17T22:05:53.087Z,96971.69
2023-06-17T22:08:24.673Z,96972.81
2023-06-17T22:10:57.702Z,96968.47
2023-06-17T22:13:24.561Z,96973.28
2023-06-17T22:15:51.205Z,96968.94
2023-06-17T22:18:18.170Z,96971.03
2023-06-17T22:20:45.070Z,96972.81
2023-06-17T22:23:11.756Z,96983.09
2023-06-17T22:25:38.361Z,96979.09
2023-06-17T22:28:05.060Z,96983.09
2023-06-17T22:30:31.699Z,96984.22
2023-06-17T22:32:58.531Z,96986.50
2023-06-17T22:35:25.171Z,96983.44
2023-06-17T22:37:51.867Z,96992.09
2023-06-17T22:40:19.411Z,96986.16
2023-06-17T22:42:46.315Z,96986.50
2023-06-17T22:45:12.960Z,96984.69
2023-06-17T22:47:39.942Z,96972.34
2023-06-17T22:50:07.351Z,96979.53
2023-06-17T22:52:34.001Z,96973.28
2023-06-17T22:55:01.185Z,96980.47
2023-06-17T22:57:28.474Z,96987.56
2023-06-17T22:59:55.120Z,96985.63
2023-06-17T23:02:21.847Z,96974.44
2023-06-17T23:04:49.802Z,96979.34
2023-06-17T23:07:16.629Z,96979.53
2023-06-17T23:09:43.481Z,96976.81
2023-06-17T23:12:10.547Z,96976.81
2023-06-17T23:14:37.663Z,96978.41
2023-06-17T23:17:05.221Z,96992.22
2023-06-17T23:19:31.808Z,96993.84
2023-06-17T23:22:00.538Z,96987.56
2023-06-17T23:24:27.848Z,96994.63
2023-06-17T23:26:54.681Z,96991.91
2023-06-17T23:29:21.359Z,96986.63
2023-06-17T23:31:48.239Z,96980.88
2023-06-17T23:34:15.005Z,96988.44
2023-06-17T23:36:44.048Z,96982.16
2023-06-17T23:39:11.253Z,96980.22
2023-06-17T23:41:38.057Z,96982.16
2023-06-17T23:44:05.135Z,96981.72
2023-06-17T23:46:32.134Z,96973.16
2023-06-17T23:48:58.895Z,96978.28
2023-06-17T23:51:25.870Z,96969.13
2023-06-17T23:53:52.645Z,96978.63
2023-06-17T23:56:19.264Z,96975.41
2023-06-17T23:58:45.968Z,96991.66
